sensor_id;sensor_type;location;lat;lon;timestamp;pressure;altitude;pressure_sealevel;temperature;humidity
44765;BME280;30484;52.382;5.260;2023-05-01T00:00:41;101960.84;;;13.87;100.00
44765;BME280;30484;52.382;5.260;2023-05-01T00:03:10;101963.63;;;13.86;100.00
44765;BME280;30484;52.382;5.260;2023-05-01T00:05:40;101952.94;;;13.84;100.00
44765;BME280;30484;52.382;5.260;2023-05-01T00:08:09;101944.22;;;13.79;100.00
44765;BME280;30484;52.382;5.260;2023-05-01T00:10:37;101946.66;;;13.64;100.00
44765;BME280;30484;52.382;5.260;2023-05-01T00:13:07;101942.38;;;13.60;100.00
44765;BME280;30484;52.382;5.260;2023-05-01T00:15:41;101943.22;;;13.61;100.00
44765;BME280;30484;52.382;5.260;2023-05-01T00:18:09;101933.78;;;13.52;100.00
44765;BME280;30484;52.382;5.260;2023-05-01T00:20:38;101935.69;;;13.50;100.00
44765;BME280;30484;52.382;5.260;2023-05-01T00:23:06;101929.69;;;13.43;100.00
44765;BME280;30484;52.382;5.260;2023-05-01T00:25:34;101934.00;;;13.48;100.00
44765;BME280;30484;52.382;5.260;2023-05-01T00:28:04;101918.63;;;13.30;100.00
44765;BME280;30484;52.382;5.260;2023-05-01T00:30:34;101935.00;;;13.45;100.00
44765;BME280;30484;52.382;5.260;2023-05-01T00:33:04;101921.88;;;13.39;100.00
44765;BME280;30484;52.382;5.260;2023-05-01T00:35:32;101919.09;;;13.40;100.00
44765;BME280;30484;52.382;5.260;2023-05-01T00:38:01;101917.69;;;13.32;100.00
44765;BME280;30484;52.382;5.260;2023-05-01T00:40:30;101915.38;;;13.22;100.00
44765;BME280;30484;52.382;5.260;2023-05-01T00:42:58;101913.66;;;13.21;100.00
44765;BME280;30484;52.382;5.260;2023-05-01T00:45:26;101912.19;;;13.14;100.00
44765;BME280;30484;52.382;5.260;2023-05-01T00:47:55;101908.84;;;13.09;100.00
44765;BME280;30484;52.382;5.260;2023-05-01T00:50:25;101905.59;;;13.01;100.00
44765;BME280;30484;52.382;5.260;2023-05-01T00:52:53;101896.50;;;13.05;100.00
44765;BME280;30484;52.382;5.260;2023-05-01T00:55:22;101900.09;;;13.04;100.00
44765;BME280;30484;52.382;5.260;2023-05-01T00:57:51;101893.13;;;13.00;100.00
44765;BME280;30484;52.382;5.260;2023-05-01T01:00:20;101896.78;;;12.99;100.00
44765;BME280;30484;52.382;5.260;2023-05-01T01:02:55;101891.66;;;12.92;100.00
44765;BME280;30484;52.382;5.260;2023-05-01T01:05:27;101886.56;;;12.86;100.00
44765;BME280;30484;52.382;5.260;2023-05-01T01:08:06;101888.19;;;12.90;100.00
44765;BME280;30484;52.382;5.260;2023-05-01T01:10:49;101882.94;;;12.87;100.00
44765;BME280;30484;52.382;5.260;2023-05-01T01:13:28;101875.97;;;12.83;100.00
44765;BME280;30484;52.382;5.260;2023-05-01T01:16:06;101872.44;;;12.83;100.00
44765;BME280;30484;52.382;5.260;2023-05-01T01:18:42;101860.16;;;12.77;100.00
44765;BME280;30484;52.382;5.260;2023-05-01T01:21:22;101868.94;;;12.81;100.00
44765;BME280;30484;52.382;5.260;2023-05-01T01:24:31;101862.00;;;12.75;100.00
44765;BME280;30484;52.382;5.260;2023-05-01T01:27:33;101859.53;;;12.70;100.00
44765;BME280;30484;52.382;5.260;2023-05-01T01:30:31;101855.59;;;12.58;100.00
44765;BME280;30484;52.382;5.260;2023-05-01T01:36:05;101843.38;;;12.51;100.00
44765;BME280;30484;52.382;5.260;2023-05-01T01:38:41;101844.31;;;12.50;100.00
44765;BME280;30484;52.382;5.260;2023-05-01T01:41:23;101829.03;;;12.52;100.00
44765;BME280;30484;52.382;5.260;2023-05-01T01:44:00;101833.66;;;12.49;100.00
44765;BME280;30484;52.382;5.260;2023-05-01T01:46:36;101829.28;;;12.46;100.00
44765;BME280;30484;52.382;5.260;2023-05-01T01:49:12;101826.19;;;12.35;100.00
44765;BME280;30484;52.382;5.260;2023-05-01T01:51:46;101822.81;;;12.30;100.00
44765;BME280;30484;52.382;5.260;2023-05-01T01:54:22;101814.91;;;12.26;100.00
44765;BME280;30484;52.382;5.260;2023-05-01T01:56:54;101806.31;;;12.18;100.00
44765;BME280;30484;52.382;5.260;2023-05-01T01:59:24;101810.75;;;12.19;100.00
44765;BME280;30484;52.382;5.260;2023-05-01T02:01:54;101804.06;;;12.30;100.00
44765;BME280;30484;52.382;5.260;2023-05-01T02:04:25;101805.13;;;12.25;100.00
44765;BME280;30484;52.382;5.260;2023-05-01T02:06:57;101801.28;;;12.33;100.00
44765;BME280;30484;52.382;5.260;2023-05-01T02:09:28;101795.53;;;12.20;100.00
44765;BME280;30484;52.382;5.260;2023-05-01T02:11:58;101804.13;;;12.28;100.00
44765;BME280;30484;52.382;5.260;2023-05-01T02:14:28;101794.47;;;12.24;100.00
44765;BME280;30484;52.382;5.260;2023-05-01T02:16:58;101788.13;;;12.26;100.00
44765;BME280;30484;52.382;5.260;2023-05-01T02:19:27;101790.94;;;12.23;100.00
44765;BME280;30484;52.382;5.260;2023-05-01T02:21:57;101785.59;;;12.23;100.00
44765;BME280;30484;52.382;5.260;2023-05-01T02:24:27;101780.34;;;12.20;100.00
44765;BME280;30484;52.382;5.260;2023-05-01T02:27:03;101778.59;;;12.19;100.00
44765;BME280;30484;52.382;5.260;2023-05-01T02:29:35;101778.03;;;12.11;100.00
44765;BME280;30484;52.382;5.260;2023-05-01T02:32:04;101776.06;;;12.16;100.00
44765;BME280;30484;52.382;5.260;2023-05-01T02:34:34;101767.41;;;12.09;100.00
44765;BME280;30484;52.382;5.260;2023-05-01T02:37:06;101756.63;;;12.11;100.00
44765;BME280;30484;52.382;5.260;2023-05-01T02:39:35;101760.00;;;12.16;100.00
44765;BME280;30484;52.382;5.260;2023-05-01T02:42:04;101748.59;;;12.11;100.00
44765;BME280;30484;52.382;5.260;2023-05-01T02:44:39;101753.28;;;12.06;100.00
44765;BME280;30484;52.382;5.260;2023-05-01T02:47:13;101753.34;;;12.04;100.00
44765;BME280;30484;52.382;5.260;2023-05-01T02:49:43;101740.88;;;12.03;100.00
44765;BME280;30484;52.382;5.260;2023-05-01T02:52:16;101745.38;;;12.03;100.00
44765;BME280;30484;52.382;5.260;2023-05-01T02:54:46;101730.78;;;11.88;100.00
44765;BME280;30484;52.382;5.260;2023-05-01T02:57:16;101735.13;;;11.90;100.00
44765;BME280;30484;52.382;5.260;2023-05-01T02:59:46;101731.44;;;11.95;100.00
44765;BME280;30484;52.382;5.260;2023-05-01T03:02:14;101720.13;;;11.86;100.00
44765;BME280;30484;52.382;5.260;2023-05-01T03:04:43;101724.31;;;11.94;100.00
44765;BME280;30484;52.382;5.260;2023-05-01T03:07:11;101716.09;;;11.98;100.00
44765;BME280;30484;52.382;5.260;2023-05-01T03:09:42;101708.19;;;11.95;100.00
44765;BME280;30484;52.382;5.260;2023-05-01T03:12:10;101717.31;;;11.89;100.00
44765;BME280;30484;52.382;5.260;2023-05-01T03:14:38;101712.47;;;11.99;100.00
44765;BME280;30484;52.382;5.260;2023-05-01T03:17:06;101705.63;;;11.92;100.00
44765;BME280;30484;52.382;5.260;2023-05-01T03:19:35;101705.38;;;11.98;100.00
44765;BME280;30484;52.382;5.260;2023-05-01T03:22:03;101702.91;;;11.94;100.00
44765;BME280;30484;52.382;5.260;2023-05-01T03:24:31;101693.16;;;11.91;100.00
44765;BME280;30484;52.382;5.260;2023-05-01T03:27:01;101697.53;;;11.94;100.00
44765;BME280;30484;52.382;5.260;2023-05-01T03:29:30;101687.78;;;11.91;100.00
44765;BME280;30484;52.382;5.260;2023-05-01T03:31:59;101697.72;;;11.89;100.00
44765;BME280;30484;52.382;5.260;2023-05-01T03:34:28;101704.81;;;11.90;100.00
44765;BME280;30484;52.382;5.260;2023-05-01T03:36:57;101693.28;;;11.88;100.00
44765;BME280;30484;52.382;5.260;2023-05-01T03:39:26;101686.19;;;11.87;100.00
44765;BME280;30484;52.382;5.260;2023-05-01T03:41:54;101690.13;;;11.78;100.00
44765;BME280;30484;52.382;5.260;2023-05-01T03:44:25;101683.22;;;11.72;100.00
44765;BME280;30484;52.382;5.260;2023-05-01T03:46:53;101675.31;;;11.69;100.00
44765;BME280;30484;52.382;5.260;2023-05-01T03:49:23;101692.25;;;11.70;100.00
44765;BME280;30484;52.382;5.260;2023-05-01T03:51:51;101695.25;;;11.62;100.00
44765;BME280;30484;52.382;5.260;2023-05-01T03:54:20;101688.22;;;11.60;100.00
44765;BME280;30484;52.382;5.260;2023-05-01T03:56:48;101684.59;;;11.61;100.00
44765;BME280;30484;52.382;5.260;2023-05-01T03:59:17;101687.59;;;11.53;100.00
44765;BME280;30484;52.382;5.260;2023-05-01T04:01:47;101689.41;;;11.52;100.00
44765;BME280;30484;52.382;5.260;2023-05-01T04:04:17;101685.22;;;11.45;100.00
44765;BME280;30484;52.382;5.260;2023-05-01T04:06:51;101686.66;;;11.54;100.00
44765;BME280;30484;52.382;5.260;2023-05-01T04:09:20;101671.97;;;11.42;100.00
44765;BME280;30484;52.382;5.260;2023-05-01T04:11:48;101687.16;;;11.42;100.00
44765;BME280;30484;52.382;5.260;2023-05-01T04:14:17;101675.56;;;11.41;100.00
44765;BME280;30484;52.382;5.260;2023-05-01T04:16:48;101685.34;;;11.42;100.00
44765;BME280;30484;52.382;5.260;2023-05-01T04:19:16;101679.31;;;11.37;100.00
44765;BME280;30484;52.382;5.260;2023-05-01T04:21:45;101677.25;;;11.44;100.00
44765;BME280;30484;52.382;5.260;2023-05-01T04:24:14;101672.91;;;11.41;100.00
44765;BME280;30484;52.382;5.260;2023-05-01T04:26:42;101670.09;;;11.44;100.00
44765;BME280;30484;52.382;5.260;2023-05-01T04:29:11;101672.69;;;11.47;100.00
44765;BME280;30484;52.382;5.260;2023-05-01T04:31:39;101677.25;;;11.44;100.00
44765;BME280;30484;52.382;5.260;2023-05-01T04:34:10;101669.31;;;11.42;100.00
44765;BME280;30484;52.382;5.260;2023-05-01T04:36:39;101659.72;;;11.36;100.00
44765;BME280;30484;52.382;5.260;2023-05-01T04:39:07;101674.72;;;11.40;100.00
44765;BME280;30484;52.382;5.260;2023-05-01T04:41:36;101678.13;;;11.44;100.00
44765;BME280;30484;52.382;5.260;2023-05-01T04:44:05;101676.41;;;11.43;100.00
44765;BME280;30484;52.382;5.260;2023-05-01T04:46:33;101674.09;;;11.34;100.00
44765;BME280;30484;52.382;5.260;2023-05-01T04:49:02;101676.47;;;11.42;100.00
44765;BME280;30484;52.382;5.260;2023-05-01T04:51:32;101672.78;;;11.44;100.00
44765;BME280;30484;52.382;5.260;2023-05-01T04:54:00;101664.56;;;11.49;100.00
44765;BME280;30484;52.382;5.260;2023-05-01T04:56:30;101667.56;;;11.41;100.00
44765;BME280;30484;52.382;5.260;2023-05-01T04:58:59;101675.56;;;11.41;100.00
44765;BME280;30484;52.382;5.260;2023-05-01T05:01:27;101676.72;;;11.57;100.00
44765;BME280;30484;52.382;5.260;2023-05-01T05:03:57;101678.44;;;11.58;100.00
44765;BME280;30484;52.382;5.260;2023-05-01T05:06:25;101672.53;;;11.50;100.00
44765;BME280;30484;52.382;5.260;2023-05-01T05:08:56;101668.41;;;11.64;100.00
44765;BME280;30484;52.382;5.260;2023-05-01T05:11:24;101674.25;;;11.73;100.00
44765;BME280;30484;52.382;5.260;2023-05-01T05:13:53;101668.50;;;11.83;100.00
44765;BME280;30484;52.382;5.260;2023-05-01T05:16:25;101669.53;;;11.80;100.00
44765;BME280;30484;52.382;5.260;2023-05-01T05:18:55;101669.13;;;11.89;100.00
44765;BME280;30484;52.382;5.260;2023-05-01T05:21:24;101666.75;;;12.04;100.00
44765;BME280;30484;52.382;5.260;2023-05-01T05:23:56;101669.34;;;12.05;100.00
44765;BME280;30484;52.382;5.260;2023-05-01T05:26:24;101670.44;;;12.22;100.00
44765;BME280;30484;52.382;5.260;2023-05-01T05:28:54;101672.66;;;12.12;100.00
44765;BME280;30484;52.382;5.260;2023-05-01T05:31:22;101669.03;;;12.34;100.00
44765;BME280;30484;52.382;5.260;2023-05-01T05:33:51;101671.56;;;12.57;100.00
44765;BME280;30484;52.382;5.260;2023-05-01T05:36:22;101664.03;;;12.66;100.00
44765;BME280;30484;52.382;5.260;2023-05-01T05:38:53;101658.66;;;12.66;100.00
44765;BME280;30484;52.382;5.260;2023-05-01T05:41:24;101666.72;;;12.45;100.00
44765;BME280;30484;52.382;5.260;2023-05-01T05:43:53;101655.63;;;12.92;100.00
44765;BME280;30484;52.382;5.260;2023-05-01T05:46:22;101665.19;;;13.17;100.00
44765;BME280;30484;52.382;5.260;2023-05-01T05:48:50;101665.63;;;13.08;100.00
44765;BME280;30484;52.382;5.260;2023-05-01T05:51:19;101662.94;;;13.27;100.00
44765;BME280;30484;52.382;5.260;2023-05-01T05:53:48;101653.78;;;13.50;100.00
44765;BME280;30484;52.382;5.260;2023-05-01T05:56:19;101650.00;;;13.54;100.00
44765;BME280;30484;52.382;5.260;2023-05-01T05:58:49;101647.50;;;13.69;100.00
44765;BME280;30484;52.382;5.260;2023-05-01T06:01:17;101641.97;;;13.72;100.00
44765;BME280;30484;52.382;5.260;2023-05-01T06:03:46;101638.25;;;13.74;100.00
44765;BME280;30484;52.382;5.260;2023-05-01T06:06:14;101644.19;;;13.98;100.00
44765;BME280;30484;52.382;5.260;2023-05-01T06:08:43;101642.38;;;13.99;100.00
44765;BME280;30484;52.382;5.260;2023-05-01T06:11:12;101641.41;;;14.00;100.00
44765;BME280;30484;52.382;5.260;2023-05-01T06:13:40;101638.88;;;14.14;100.00
44765;BME280;30484;52.382;5.260;2023-05-01T06:16:10;101652.88;;;13.86;100.00
44765;BME280;30484;52.382;5.260;2023-05-01T06:18:39;101649.38;;;14.37;100.00
44765;BME280;30484;52.382;5.260;2023-05-01T06:21:11;101641.09;;;14.24;100.00
44765;BME280;30484;52.382;5.260;2023-05-01T06:23:39;101632.78;;;14.28;100.00
44765;BME280;30484;52.382;5.260;2023-05-01T06:26:08;101640.75;;;14.81;100.00
44765;BME280;30484;52.382;5.260;2023-05-01T06:28:36;101639.22;;;14.42;100.00
44765;BME280;30484;52.382;5.260;2023-05-01T06:31:04;101642.97;;;14.73;100.00
44765;BME280;30484;52.382;5.260;2023-05-01T06:33:35;101639.19;;;15.09;100.00
44765;BME280;30484;52.382;5.260;2023-05-01T06:36:04;101639.88;;;15.28;100.00
44765;BME280;30484;52.382;5.260;2023-05-01T06:38:37;101640.72;;;15.29;100.00
44765;BME280;30484;52.382;5.260;2023-05-01T06:41:08;101636.56;;;15.39;100.00
44765;BME280;30484;52.382;5.260;2023-05-01T06:43:37;101629.47;;;15.22;100.00
44765;BME280;30484;52.382;5.260;2023-05-01T06:46:05;101627.00;;;15.49;100.00
44765;BME280;30484;52.382;5.260;2023-05-01T06:48:35;101634.41;;;15.60;100.00
44765;BME280;30484;52.382;5.260;2023-05-01T06:51:04;101636.75;;;15.20;100.00
44765;BME280;30484;52.382;5.260;2023-05-01T06:53:32;101639.63;;;15.17;100.00
44765;BME280;30484;52.382;5.260;2023-05-01T06:56:03;101643.41;;;15.29;100.00
44765;BME280;30484;52.382;5.260;2023-05-01T06:58:32;101631.34;;;15.20;100.00
44765;BME280;30484;52.382;5.260;2023-05-01T07:01:00;101639.47;;;15.66;100.00
44765;BME280;30484;52.382;5.260;2023-05-01T07:03:29;101637.97;;;15.77;100.00
44765;BME280;30484;52.382;5.260;2023-05-01T07:05:59;101645.44;;;15.25;100.00
44765;BME280;30484;52.382;5.260;2023-05-01T07:08:28;101647.63;;;15.81;100.00
44765;BME280;30484;52.382;5.260;2023-05-01T07:10:57;101643.63;;;15.56;100.00
44765;BME280;30484;52.382;5.260;2023-05-01T07:13:25;101641.38;;;16.25;100.00
44765;BME280;30484;52.382;5.260;2023-05-01T07:15:53;101650.25;;;15.97;100.00
44765;BME280;30484;52.382;5.260;2023-05-01T07:18:22;101643.78;;;15.85;100.00
44765;BME280;30484;52.382;5.260;2023-05-01T07:20:52;101638.91;;;15.76;100.00
44765;BME280;30484;52.382;5.260;2023-05-01T07:23:21;101638.84;;;16.08;100.00
44765;BME280;30484;52.382;5.260;2023-05-01T07:25:51;101633.59;;;15.90;100.00
44765;BME280;30484;52.382;5.260;2023-05-01T07:28:20;101629.97;;;16.20;100.00
44765;BME280;30484;52.382;5.260;2023-05-01T07:30:48;101628.47;;;16.59;100.00
44765;BME280;30484;52.382;5.260;2023-05-01T07:33:16;101633.34;;;16.81;100.00
44765;BME280;30484;52.382;5.260;2023-05-01T07:35:45;101628.28;;;16.91;100.00
44765;BME280;30484;52.382;5.260;2023-05-01T07:38:15;101621.47;;;17.13;100.00
44765;BME280;30484;52.382;5.260;2023-05-01T07:40:45;101629.97;;;17.06;100.00
44765;BME280;30484;52.382;5.260;2023-05-01T07:43:13;101628.19;;;17.47;100.00
44765;BME280;30484;52.382;5.260;2023-05-01T07:45:41;101619.81;;;17.52;100.00
44765;BME280;30484;52.382;5.260;2023-05-01T07:48:20;101617.94;;;17.52;100.00
44765;BME280;30484;52.382;5.260;2023-05-01T07:50:49;101625.88;;;17.68;100.00
44765;BME280;30484;52.382;5.260;2023-05-01T07:53:17;101611.31;;;17.84;100.00
44765;BME280;30484;52.382;5.260;2023-05-01T07:55:46;101612.47;;;18.20;100.00
44765;BME280;30484;52.382;5.260;2023-05-01T07:58:14;101611.38;;;18.22;100.00
44765;BME280;30484;52.382;5.260;2023-05-01T08:00:43;101613.34;;;18.46;100.00
44765;BME280;30484;52.382;5.260;2023-05-01T08:03:12;101609.22;;;18.53;100.00
44765;BME280;30484;52.382;5.260;2023-05-01T08:05:41;101613.25;;;18.85;100.00
44765;BME280;30484;52.382;5.260;2023-05-01T08:08:09;101612.16;;;19.00;100.00
44765;BME280;30484;52.382;5.260;2023-05-01T08:10:39;101607.53;;;18.89;100.00
44765;BME280;30484;52.382;5.260;2023-05-01T08:13:09;101617.00;;;19.08;100.00
44765;BME280;30484;52.382;5.260;2023-05-01T08:15:37;101614.16;;;18.72;100.00
44765;BME280;30484;52.382;5.260;2023-05-01T08:18:08;101613.28;;;19.22;100.00
44765;BME280;30484;52.382;5.260;2023-05-01T08:20:39;101619.84;;;19.06;100.00
44765;BME280;30484;52.382;5.260;2023-05-01T08:23:07;101613.88;;;19.49;100.00
44765;BME280;30484;52.382;5.260;2023-05-01T08:25:36;101618.75;;;19.81;100.00
44765;BME280;30484;52.382;5.260;2023-05-01T08:28:04;101620.59;;;19.57;100.00
44765;BME280;30484;52.382;5.260;2023-05-01T08:30:34;101613.97;;;20.08;100.00
44765;BME280;30484;52.382;5.260;2023-05-01T08:33:03;101614.63;;;20.23;100.00
44765;BME280;30484;52.382;5.260;2023-05-01T08:35:31;101618.84;;;20.27;100.00
44765;BME280;30484;52.382;5.260;2023-05-01T08:38:00;101608.22;;;20.58;100.00
44765;BME280;30484;52.382;5.260;2023-05-01T08:40:35;101607.50;;;20.56;100.00
44765;BME280;30484;52.382;5.260;2023-05-01T08:43:04;101611.34;;;20.76;100.00
44765;BME280;30484;52.382;5.260;2023-05-01T08:45:36;101606.97;;;21.07;100.00
44765;BME280;30484;52.382;5.260;2023-05-01T08:48:05;101613.88;;;21.11;100.00
44765;BME280;30484;52.382;5.260;2023-05-01T08:50:34;101608.44;;;21.11;100.00
44765;BME280;30484;52.382;5.260;2023-05-01T08:53:04;101616.63;;;21.00;100.00
44765;BME280;30484;52.382;5.260;2023-05-01T08:55:34;101613.22;;;21.63;100.00
44765;BME280;30484;52.382;5.260;2023-05-01T08:58:04;101612.25;;;21.85;100.00
44765;BME280;30484;52.382;5.260;2023-05-01T09:00:36;101620.69;;;20.94;100.00
44765;BME280;30484;52.382;5.260;2023-05-01T09:03:06;101621.69;;;22.02;100.00
44765;BME280;30484;52.382;5.260;2023-05-01T09:05:36;101626.56;;;21.87;100.00
44765;BME280;30484;52.382;5.260;2023-05-01T09:08:05;101624.91;;;21.96;100.00
44765;BME280;30484;52.382;5.260;2023-05-01T09:10:43;101625.13;;;22.25;100.00
44765;BME280;30484;52.382;5.260;2023-05-01T09:13:12;101623.38;;;22.24;100.00
44765;BME280;30484;52.382;5.260;2023-05-01T09:15:42;101627.31;;;22.10;100.00
44765;BME280;30484;52.382;5.260;2023-05-01T09:18:10;101628.81;;;22.76;100.00
44765;BME280;30484;52.382;5.260;2023-05-01T09:20:39;101628.53;;;23.20;100.00
44765;BME280;30484;52.382;5.260;2023-05-01T09:23:09;101625.31;;;22.12;100.00
44765;BME280;30484;52.382;5.260;2023-05-01T09:25:38;101628.13;;;22.53;100.00
44765;BME280;30484;52.382;5.260;2023-05-01T09:28:07;101621.31;;;22.68;100.00
44765;BME280;30484;52.382;5.260;2023-05-01T09:30:37;101626.59;;;22.60;100.00
44765;BME280;30484;52.382;5.260;2023-05-01T09:33:09;101620.94;;;22.83;100.00
44765;BME280;30484;52.382;5.260;2023-05-01T09:35:50;101631.03;;;22.61;100.00
44765;BME280;30484;52.382;5.260;2023-05-01T09:38:20;101624.56;;;23.03;100.00
44765;BME280;30484;52.382;5.260;2023-05-01T09:40:51;101629.28;;;23.32;100.00
44765;BME280;30484;52.382;5.260;2023-05-01T09:43:27;101620.34;;;23.30;100.00
44765;BME280;30484;52.382;5.260;2023-05-01T09:46:01;101615.78;;;23.50;100.00
44765;BME280;30484;52.382;5.260;2023-05-01T09:48:33;101623.53;;;24.03;100.00
44765;BME280;30484;52.382;5.260;2023-05-01T09:51:20;101628.38;;;24.19;100.00
44765;BME280;30484;52.382;5.260;2023-05-01T09:53:50;101627.41;;;24.10;100.00
44765;BME280;30484;52.382;5.260;2023-05-01T09:56:22;101630.22;;;24.28;100.00
44765;BME280;30484;52.382;5.260;2023-05-01T09:58:51;101621.75;;;24.32;98.40
44765;BME280;30484;52.382;5.260;2023-05-01T10:01:37;101623.38;;;24.52;100.00
44765;BME280;30484;52.382;5.260;2023-05-01T10:04:08;101624.38;;;24.51;92.42
44765;BME280;30484;52.382;5.260;2023-05-01T10:06:37;101627.38;;;24.58;91.47
44765;BME280;30484;52.382;5.260;2023-05-01T10:09:07;101628.53;;;24.65;89.52
44765;BME280;30484;52.382;5.260;2023-05-01T10:11:51;101626.03;;;24.99;88.49
44765;BME280;30484;52.382;5.260;2023-05-01T10:14:22;101626.56;;;25.31;95.94
44765;BME280;30484;52.382;5.260;2023-05-01T10:16:53;101620.50;;;25.09;87.60
44765;BME280;30484;52.382;5.260;2023-05-01T10:19:25;101625.56;;;25.32;94.70
44765;BME280;30484;52.382;5.260;2023-05-01T10:21:53;101631.66;;;25.44;95.21
44765;BME280;30484;52.382;5.260;2023-05-01T10:24:22;101623.31;;;25.81;92.26
44765;BME280;30484;52.382;5.260;2023-05-01T10:26:51;101622.63;;;24.97;84.54
44765;BME280;30484;52.382;5.260;2023-05-01T10:29:22;101627.66;;;25.20;84.49
44765;BME280;30484;52.382;5.260;2023-05-01T10:31:54;101630.53;;;25.91;83.54
44765;BME280;30484;52.382;5.260;2023-05-01T10:34:25;101633.53;;;25.97;88.88
44765;BME280;30484;52.382;5.260;2023-05-01T10:36:59;101639.81;;;25.90;80.42
44765;BME280;30484;52.382;5.260;2023-05-01T10:39:32;101641.09;;;26.56;79.72
44765;BME280;30484;52.382;5.260;2023-05-01T10:42:07;101637.19;;;26.06;78.38
44765;BME280;30484;52.382;5.260;2023-05-01T10:44:38;101639.94;;;26.06;87.82
44765;BME280;30484;52.382;5.260;2023-05-01T10:47:45;101647.97;;;25.45;90.25
44765;BME280;30484;52.382;5.260;2023-05-01T10:50:16;101650.19;;;25.86;81.21
44765;BME280;30484;52.382;5.260;2023-05-01T10:53:17;101661.47;;;25.83;80.47
44765;BME280;30484;52.382;5.260;2023-05-01T10:55:47;101657.41;;;25.87;89.50
44765;BME280;30484;52.382;5.260;2023-05-01T10:58:54;101655.13;;;26.00;84.40
44765;BME280;30484;52.382;5.260;2023-05-01T11:01:29;101658.91;;;25.45;88.76
44765;BME280;30484;52.382;5.260;2023-05-01T11:04:02;101654.59;;;25.43;87.08
44765;BME280;30484;52.382;5.260;2023-05-01T11:06:34;101657.75;;;25.92;82.00
44765;BME280;30484;52.382;5.260;2023-05-01T11:09:35;101667.47;;;25.50;81.38
44765;BME280;30484;52.382;5.260;2023-05-01T11:12:07;101664.16;;;25.01;77.10
44765;BME280;30484;52.382;5.260;2023-05-01T11:15:04;101662.88;;;25.51;71.02
44765;BME280;30484;52.382;5.260;2023-05-01T11:17:52;101674.84;;;25.22;78.86
44765;BME280;30484;52.382;5.260;2023-05-01T11:20:47;101666.47;;;25.24;88.03
44765;BME280;30484;52.382;5.260;2023-05-01T11:23:20;101664.50;;;24.60;99.60
44765;BME280;30484;52.382;5.260;2023-05-01T11:26:00;101665.56;;;24.87;100.00
44765;BME280;30484;52.382;5.260;2023-05-01T11:28:30;101680.84;;;24.80;100.00
44765;BME280;30484;52.382;5.260;2023-05-01T11:30:59;101683.63;;;25.26;100.00
44765;BME280;30484;52.382;5.260;2023-05-01T11:33:30;101669.84;;;24.90;100.00
44765;BME280;30484;52.382;5.260;2023-05-01T11:36:00;101671.09;;;24.68;100.00
44765;BME280;30484;52.382;5.260;2023-05-01T11:38:32;101676.50;;;25.05;100.00
44765;BME280;30484;52.382;5.260;2023-05-01T11:41:02;101675.75;;;24.85;100.00
44765;BME280;30484;52.382;5.260;2023-05-01T11:43:32;101665.00;;;24.74;100.00
44765;BME280;30484;52.382;5.260;2023-05-01T11:46:00;101666.19;;;24.99;100.00
44765;BME280;30484;52.382;5.260;2023-05-01T11:48:31;101673.91;;;24.86;100.00
44765;BME280;30484;52.382;5.260;2023-05-01T11:50:59;101668.03;;;24.23;100.00
44765;BME280;30484;52.382;5.260;2023-05-01T11:53:31;101660.00;;;24.22;100.00
44765;BME280;30484;52.382;5.260;2023-05-01T11:56:00;101665.53;;;24.40;100.00
44765;BME280;30484;52.382;5.260;2023-05-01T11:58:39;101665.31;;;23.84;100.00
44765;BME280;30484;52.382;5.260;2023-05-01T12:01:07;101660.88;;;24.03;100.00
44765;BME280;30484;52.382;5.260;2023-05-01T12:03:42;101671.19;;;23.50;100.00
44765;BME280;30484;52.382;5.260;2023-05-01T12:06:12;101668.34;;;23.91;100.00
44765;BME280;30484;52.382;5.260;2023-05-01T12:08:46;101666.91;;;23.97;100.00
44765;BME280;30484;52.382;5.260;2023-05-01T12:11:17;101667.31;;;23.63;100.00
44765;BME280;30484;52.382;5.260;2023-05-01T12:13:46;101661.72;;;23.74;100.00
44765;BME280;30484;52.382;5.260;2023-05-01T12:16:16;101669.50;;;23.69;100.00
44765;BME280;30484;52.382;5.260;2023-05-01T12:18:45;101670.22;;;23.10;100.00
44765;BME280;30484;52.382;5.260;2023-05-01T12:21:15;101669.03;;;22.93;100.00
44765;BME280;30484;52.382;5.260;2023-05-01T12:23:46;101672.38;;;22.24;100.00
44765;BME280;30484;52.382;5.260;2023-05-01T12:26:16;101674.16;;;22.87;100.00
44765;BME280;30484;52.382;5.260;2023-05-01T12:29:04;101673.81;;;21.86;100.00
44765;BME280;30484;52.382;5.260;2023-05-01T12:31:34;101662.75;;;21.99;100.00
44765;BME280;30484;52.382;5.260;2023-05-01T12:34:05;101675.81;;;21.51;100.00
44765;BME280;30484;52.382;5.260;2023-05-01T12:36:35;101678.28;;;21.32;100.00
44765;BME280;30484;52.382;5.260;2023-05-01T12:39:07;101675.66;;;21.09;100.00
44765;BME280;30484;52.382;5.260;2023-05-01T12:41:38;101678.13;;;21.01;100.00
44765;BME280;30484;52.382;5.260;2023-05-01T12:44:18;101678.03;;;21.46;100.00
44765;BME280;30484;52.382;5.260;2023-05-01T12:46:54;101673.72;;;21.44;100.00
44765;BME280;30484;52.382;5.260;2023-05-01T12:49:31;101669.53;;;21.40;100.00
44765;BME280;30484;52.382;5.260;2023-05-01T12:52:04;101677.84;;;20.59;100.00
44765;BME280;30484;52.382;5.260;2023-05-01T12:54:37;101669.84;;;21.02;100.00
44765;BME280;30484;52.382;5.260;2023-05-01T12:57:07;101671.50;;;21.26;100.00
44765;BME280;30484;52.382;5.260;2023-05-01T12:59:37;101673.13;;;21.17;100.00
44765;BME280;30484;52.382;5.260;2023-05-01T13:02:07;101670.56;;;20.93;100.00
44765;BME280;30484;52.382;5.260;2023-05-01T13:04:40;101662.53;;;21.03;100.00